Time;durP1;ratioP1;P1;durP2;ratioP2;P2;SDS_P1;SDS_P2;PMS_P1;PMS_P2;Temp;Humidity;BMP_temperature;BMP_pressure;BME280_temperature;BME280_humidity;BME280_pressure;Samples;Min_cycle;Max_cycle;Signal;HPM_P1;HPM_P2
2023/01/23 00:03:19;;;;;;;34.15;23.15;;;;;;;0.50;100.00;101517.03;10415675;28;20048;-72
2023/01/23 00:08:21;;;;;;;27.55;22.35;;;;;;;0.37;100.00;101520.03;10415201;28;20379;-72
2023/01/23 00:13:23;;;;;;;29.13;22.10;;;;;;;0.61;100.00;101518.25;10415203;28;20068;-75
2023/01/23 00:18:24;;;;;;;40.65;23.85;;;;;;;0.73;100.00;101526.41;10396665;28;20052;-72
2023/01/23 00:23:26;;;;;;;41.75;24.42;;;;;;;0.62;100.00;101527.78;10397297;28;20474;-72
2023/01/23 00:28:28;;;;;;;39.08;23.40;;;;;;;0.66;100.00;101529.63;10397416;28;20128;-72
2023/01/23 00:33:30;;;;;;;42.20;23.25;;;;;;;0.42;100.00;101540.06;10415006;28;20479;-72
2023/01/23 00:38:32;;;;;;;40.95;24.77;;;;;;;0.44;100.00;101534.91;10400270;28;20050;-72
2023/01/23 00:43:34;;;;;;;37.20;23.38;;;;;;;0.60;100.00;101528.56;10387932;28;20045;-73
2023/01/23 00:48:36;;;;;;;34.65;23.65;;;;;;;0.57;100.00;101538.78;10424184;28;20458;-72
2023/01/23 00:53:38;;;;;;;36.72;23.00;;;;;;;0.57;100.00;101537.09;10423956;28;20041;-72
2023/01/23 00:58:40;;;;;;;41.40;23.80;;;;;;;0.37;100.00;101551.97;10422702;28;20419;-72
2023/01/23 01:03:46;;;;;;;42.13;24.90;;;;;;;0.29;100.00;101540.47;10404138;28;20492;-73
2023/01/23 01:08:48;;;;;;;36.80;21.95;;;;;;;0.33;100.00;101550.09;10421611;28;20049;-72
2023/01/23 01:13:50;;;;;;;35.00;22.38;;;;;;;0.56;100.00;101560.34;10403534;28;20037;-72
2023/01/23 01:18:52;;;;;;;36.67;23.25;;;;;;;0.39;100.00;101570.97;10421626;28;20052;-73
2023/01/23 01:23:54;;;;;;;35.38;23.10;;;;;;;0.54;100.00;101562.88;10420535;28;20487;-72
2023/01/23 01:28:56;;;;;;;40.10;23.75;;;;;;;0.53;100.00;101558.50;10420800;28;20057;-71
2023/01/23 01:33:58;;;;;;;34.83;22.10;;;;;;;0.32;100.00;101578.50;10420127;28;20041;-71
2023/01/23 01:38:59;;;;;;;35.33;24.10;;;;;;;0.23;100.00;101581.66;10418935;28;20088;-71
2023/01/23 01:44:01;;;;;;;41.60;23.75;;;;;;;0.31;100.00;101584.47;10419036;28;20044;-72
2023/01/23 01:49:18;;;;;;;36.28;24.38;;;;;;;0.43;100.00;101587.50;10418093;28;20430;-72
2023/01/23 01:54:27;;;;;;;45.60;24.25;;;;;;;0.31;100.00;101598.31;10420005;28;20056;-72
2023/01/23 01:59:34;;;;;;;38.35;22.75;;;;;;;0.28;100.00;101599.91;10420506;28;20052;-72
2023/01/23 02:04:42;;;;;;;32.35;22.92;;;;;;;0.53;100.00;101609.38;10402230;28;20133;-72
2023/01/23 02:09:45;;;;;;;35.50;23.30;;;;;;;0.34;100.00;101610.47;10401846;28;20055;-72
2023/01/23 02:14:47;;;;;;;39.95;24.83;;;;;;;0.41;100.00;101621.09;10401517;28;20091;-72
2023/01/23 02:19:53;;;;;;;36.35;22.88;;;;;;;0.56;100.00;101617.25;10419320;28;20061;-73
2023/01/23 02:25:11;;;;;;;33.67;23.23;;;;;;;0.44;100.00;101612.53;10401437;28;20065;-72
2023/01/23 02:30:14;;;;;;;34.55;22.65;;;;;;;0.41;100.00;101610.75;10399934;28;20049;-71
2023/01/23 02:35:29;;;;;;;36.20;23.20;;;;;;;0.32;100.00;101618.19;10399549;28;20099;-71
2023/01/23 02:40:39;;;;;;;43.15;23.83;;;;;;;0.72;100.00;101625.59;10417933;28;20489;-72
2023/01/23 02:45:44;;;;;;;;;;;;;;;0.47;100.00;101638.53;10383806;28;20100;-71
2023/01/23 02:50:48;;;;;;;38.17;22.40;;;;;;;0.41;100.00;101634.03;10398806;28;19921;-72
2023/01/23 02:55:50;;;;;;;37.38;23.77;;;;;;;0.35;100.00;101633.78;10417217;28;20091;-72
2023/01/23 03:00:54;;;;;;;33.97;21.65;;;;;;;0.53;100.00;101632.66;10399634;28;20135;-73
2023/01/23 03:05:58;;;;;;;30.05;21.35;;;;;;;0.42;100.00;101634.91;10400340;28;20070;-72
2023/01/23 03:11:00;;;;;;;30.35;21.80;;;;;;;0.48;100.00;101624.75;10382698;28;20396;-72
2023/01/23 03:16:01;;;;;;;27.38;20.80;;;;;;;0.53;100.00;101615.44;10398717;28;20040;-72
2023/01/23 03:21:07;;;;;;;30.45;21.80;;;;;;;0.39;100.00;101602.03;10398138;28;20041;-72
2023/01/23 03:26:10;;;;;;;32.47;23.02;;;;;;;0.34;100.00;101601.00;10415662;28;20553;-72
2023/01/23 03:31:12;;;;;;;28.65;22.23;;;;;;;0.40;100.00;101601.22;10415888;28;20049;-72
2023/01/23 03:36:14;;;;;;;31.55;21.60;;;;;;;0.34;100.00;101606.16;10398554;28;20045;-72
2023/01/23 03:41:25;;;;;;;30.30;21.92;;;;;;;0.43;100.00;101621.13;10397268;28;20045;-72
2023/01/23 03:46:31;;;;;;;30.60;22.05;;;;;;;0.56;100.00;101622.44;10397412;28;20046;-71
2023/01/23 03:51:33;;;;;;;27.48;21.83;;;;;;;0.53;100.00;101637.84;10397041;28;20076;-71
2023/01/23 03:56:35;;;;;;;33.88;22.35;;;;;;;0.47;100.00;101643.69;10415073;28;20103;-71
2023/01/23 04:01:41;;;;;;;28.13;20.13;;;;;;;0.38;100.00;101643.38;10397509;28;20061;-71
2023/01/23 04:06:43;;;;;;;29.08;22.30;;;;;;;0.58;100.00;101644.09;10396897;28;20292;-71
2023/01/23 04:11:45;;;;;;;32.38;22.02;;;;;;;0.47;100.00;101648.88;10396773;28;20045;-71
2023/01/23 04:16:47;;;;;;;32.45;21.92;;;;;;;0.55;100.00;101657.78;10404751;28;20053;-71
2023/01/23 04:21:50;;;;;;;27.48;21.05;;;;;;;0.38;100.00;101666.66;10404373;28;20045;-71
2023/01/23 04:26:52;;;;;;;26.90;21.55;;;;;;;0.42;100.00;101672.00;10421780;28;20065;-71
2023/01/23 04:31:53;;;;;;;29.90;21.30;;;;;;;0.49;100.00;101668.81;10403484;28;20045;-72
2023/01/23 04:36:55;;;;;;;30.48;22.48;;;;;;;0.50;100.00;101673.16;10404082;28;20550;-71
2023/01/23 04:47:27;;;;;;;24.27;20.80;;;;;;;0.58;100.00;101678.59;10397070;28;20084;-70
2023/01/23 04:52:30;;;;;;;27.38;20.95;;;;;;;0.51;100.00;101681.78;10330415;28;20072;-70
2023/01/23 04:57:32;;;;;;;29.52;21.35;;;;;;;0.56;100.00;101689.72;10341792;28;20426;-70
2023/01/23 05:02:53;;;;;;;26.05;20.42;;;;;;;0.44;100.00;101684.97;10342360;28;20057;-71
2023/01/23 05:07:55;;;;;;;22.95;20.58;;;;;;;0.73;100.00;101678.25;10340167;28;20137;-70
2023/01/23 05:12:57;;;;;;;28.10;21.42;;;;;;;0.78;100.00;101689.63;10339561;28;20061;-70
2023/01/23 05:17:59;;;;;;;25.67;21.40;;;;;;;0.59;100.00;101684.66;10338828;28;20046;-70
2023/01/23 05:23:01;;;;;;;29.35;22.48;;;;;;;0.38;100.00;101687.34;10338650;28;20093;-70
2023/01/23 05:28:10;;;;;;;24.48;21.42;;;;;;;0.53;100.00;101697.34;10339836;28;20048;-71
2023/01/23 05:33:18;;;;;;;31.30;22.27;;;;;;;0.51;100.00;101686.97;10338657;28;20046;-70
2023/01/23 05:38:20;;;;;;;29.65;22.73;;;;;;;0.63;100.00;101694.28;10338109;28;20137;-71
2023/01/23 05:43:22;;;;;;;34.85;24.38;;;;;;;0.39;100.00;101696.88;10338722;28;20062;-70
2023/01/23 05:48:50;;;;;;;36.13;22.65;;;;;;;0.41;100.00;101698.69;10339422;28;20424;-70
2023/01/23 05:53:53;;;;;;;;;;;;;;;0.39;100.00;101702.03;10337753;28;20042;-70
2023/01/23 05:58:55;;;;;;;31.10;23.35;;;;;;;0.38;100.00;101711.50;10336152;28;19945;-69
2023/01/23 06:04:20;;;;;;;51.60;30.95;;;;;;;0.37;100.00;101714.06;10325694;28;20558;-69
2023/01/23 06:09:57;;;;;;;;;;;;;;;0.22;100.00;101716.94;10328689;28;20062;-69
2023/01/23 06:14:59;;;;;;;50.80;26.95;;;;;;;0.30;100.00;101723.28;10335199;28;19921;-70
2023/01/23 06:20:01;;;;;;;54.17;27.55;;;;;;;0.37;100.00;101721.81;10335679;28;20046;-70
2023/01/23 06:25:05;;;;;;;51.08;27.25;;;;;;;0.38;100.00;101721.84;10336114;28;20405;-70
2023/01/23 06:30:07;;;;;;;53.15;27.55;;;;;;;0.43;100.00;101727.19;10320966;28;20220;-70
2023/01/23 06:35:18;;;;;;;56.65;28.00;;;;;;;0.40;100.00;101724.47;10334903;28;20133;-68
2023/01/23 06:40:20;;;;;;;62.15;27.88;;;;;;;0.50;100.00;101749.88;10334839;28;20050;-69
2023/01/23 06:45:44;;;;;;;63.53;29.20;;;;;;;0.41;100.00;101745.25;10334674;28;20129;-70
2023/01/23 06:50:46;;;;;;;66.03;29.67;;;;;;;0.38;100.00;101750.31;10320786;28;20050;-70
2023/01/23 06:55:48;;;;;;;62.67;28.13;;;;;;;0.41;100.00;101758.19;10318913;28;20554;-71
2023/01/23 07:00:51;;;;;;;62.38;28.80;;;;;;;0.60;100.00;101766.63;10334752;28;20054;-68
2023/01/23 07:06:13;;;;;;;63.85;28.13;;;;;;;0.44;100.00;101766.09;10335735;28;20499;-69
2023/01/23 07:11:15;;;;;;;65.70;28.90;;;;;;;0.70;100.00;101774.75;10334567;28;20507;-70
2023/01/23 07:16:17;;;;;;;66.15;30.25;;;;;;;0.47;100.00;101784.28;10335359;28;20074;-70
2023/01/23 07:21:19;;;;;;;56.75;28.05;;;;;;;0.59;100.00;101801.97;10317938;28;20456;-69
2023/01/23 07:26:21;;;;;;;54.90;27.15;;;;;;;0.62;100.00;101812.44;10334980;28;20384;-71
2023/01/23 07:31:23;;;;;;;57.13;28.17;;;;;;;0.72;100.00;101813.66;10334746;28;20042;-71
2023/01/23 07:36:24;;;;;;;53.75;26.80;;;;;;;0.91;100.00;101829.03;10338021;28;20118;-69
2023/01/23 07:41:26;;;;;;;55.08;29.23;;;;;;;0.65;100.00;101834.97;10336111;28;20048;-69
2023/01/23 07:46:29;;;;;;;54.47;28.73;;;;;;;0.54;100.00;101841.44;10335246;28;20050;-70
2023/01/23 07:51:30;;;;;;;61.13;29.20;;;;;;;0.66;100.00;101840.19;10341400;28;20085;-69
2023/01/23 07:56:32;;;;;;;66.60;29.70;;;;;;;0.59;100.00;101835.63;10344948;28;20069;-69
2023/01/23 08:01:34;;;;;;;51.63;28.55;;;;;;;0.61;100.00;101843.44;10343360;28;20048;-70
2023/01/23 08:06:37;;;;;;;54.25;28.83;;;;;;;0.60;100.00;101842.56;10343724;28;20065;-71
2023/01/23 08:11:38;;;;;;;57.25;30.55;;;;;;;0.65;100.00;101853.06;10341472;28;20064;-70
2023/01/23 08:16:40;;;;;;;64.38;31.20;;;;;;;0.52;100.00;101849.13;10342796;28;20045;-70
2023/01/23 08:21:42;;;;;;;68.38;30.33;;;;;;;0.49;100.00;101849.03;10344529;28;20050;-70
2023/01/23 08:26:44;;;;;;;56.00;29.95;;;;;;;0.67;100.00;101849.72;10341002;28;20046;-70
2023/01/23 08:31:45;;;;;;;55.78;30.63;;;;;;;0.61;100.00;101866.72;10340661;28;20042;-70
2023/01/23 08:36:47;;;;;;;55.25;29.42;;;;;;;0.57;100.00;101857.06;10341585;28;20109;-70
2023/01/23 08:41:49;;;;;;;57.55;30.60;;;;;;;0.74;100.00;101854.28;10341724;28;20112;-70
2023/01/23 08:46:51;;;;;;;72.88;32.47;;;;;;;0.77;100.00;101858.72;10340967;28;20142;-70
2023/01/23 08:51:53;;;;;;;65.10;32.67;;;;;;;0.77;100.00;101866.47;10340733;28;20491;-70
2023/01/23 08:56:55;;;;;;;65.38;30.95;;;;;;;0.74;100.00;101866.34;10340085;28;20046;-70
2023/01/23 09:01:56;;;;;;;60.15;29.65;;;;;;;0.82;100.00;101869.25;10340168;28;20050;-70
2023/01/23 09:06:58;;;;;;;59.63;29.80;;;;;;;0.83;100.00;101869.28;10340760;28;20057;-70
2023/01/23 09:12:00;;;;;;;55.75;29.55;;;;;;;0.79;100.00;101864.81;10320129;28;20504;-70
2023/01/23 09:17:01;;;;;;;59.75;31.00;;;;;;;0.92;100.00;101868.75;10332600;28;20042;-71
2023/01/23 09:22:03;;;;;;;60.28;31.05;;;;;;;1.07;100.00;101886.56;10300178;28;20042;-70
2023/01/23 09:27:05;;;;;;;56.40;29.48;;;;;;;1.12;100.00;101888.50;10298810;28;20043;-70
2023/01/23 09:32:06;;;;;;;48.55;28.33;;;;;;;0.99;100.00;101891.47;10353548;28;20054;-70
2023/01/23 09:37:08;;;;;;;57.45;29.73;;;;;;;1.11;100.00;101893.63;10339073;28;20049;-70
2023/01/23 09:42:19;;;;;;;53.13;27.70;;;;;;;1.06;100.00;101889.97;10336979;28;20154;-70
2023/01/23 09:47:35;;;;;;;64.22;30.85;;;;;;;0.90;100.00;101888.53;10303601;28;20038;-71
2023/01/23 09:52:43;;;;;;;65.50;30.92;;;;;;;0.92;100.00;101885.16;10337217;28;20105;-71
2023/01/23 09:57:53;;;;;;;63.58;29.88;;;;;;;0.87;100.00;101878.94;10338647;28;20046;-71
2023/01/23 10:02:55;;;;;;;65.63;31.17;;;;;;;0.84;100.00;101871.06;10338975;28;20053;-71
2023/01/23 10:08:00;;;;;;;59.00;29.05;;;;;;;1.05;100.00;101864.91;10338861;28;20519;-71
2023/01/23 10:13:15;;;;;;;54.22;27.75;;;;;;;1.13;100.00;101872.13;10335632;28;20061;-71
2023/01/23 10:18:43;;;;;;;54.70;28.00;;;;;;;1.21;100.00;101864.63;10337357;28;20089;-70
2023/01/23 10:24:23;;;;;;;54.97;28.75;;;;;;;1.05;100.00;101863.19;10337311;28;20042;-70
2023/01/23 10:29:42;;;;;;;47.55;28.00;;;;;;;1.13;100.00;101868.66;10253961;29;20527;-70
2023/01/23 10:34:52;;;;;;;50.58;27.13;;;;;;;1.25;100.00;101866.50;10253542;29;20138;-70
2023/01/23 10:40:02;;;;;;;49.03;27.90;;;;;;;1.21;100.00;101865.50;10236684;29;20047;-71
2023/01/23 10:45:05;;;;;;;60.78;29.88;;;;;;;1.23;100.00;101860.38;10250969;28;20164;-70
2023/01/23 10:50:07;;;;;;;45.97;27.85;;;;;;;1.20;100.00;101866.34;10339018;22;20049;-74
2023/01/23 10:55:18;;;;;;;54.33;29.52;;;;;;;1.18;100.00;101859.34;10401291;28;20049;-74
2023/01/23 11:00:35;;;;;;;49.22;27.77;;;;;;;1.27;100.00;101857.94;10419685;28;20107;-75
2023/01/23 11:05:40;;;;;;;53.37;29.37;;;;;;;1.20;100.00;101862.88;10420011;28;20175;-74
2023/01/23 11:11:10;;;;;;;42.05;27.20;;;;;;;1.35;100.00;101860.81;10419388;28;20125;-76
2023/01/23 11:16:14;;;;;;;41.90;26.30;;;;;;;1.44;100.00;101863.72;10417907;28;20037;-75
2023/01/23 11:21:27;;;;;;;39.25;26.33;;;;;;;1.47;100.00;101858.66;10417984;28;20045;-76
2023/01/23 11:26:31;;;;;;;39.78;26.40;;;;;;;1.54;100.00;101853.66;10420114;28;20025;-74
2023/01/23 11:31:32;;;;;;;36.45;27.00;;;;;;;1.46;100.00;101859.50;10419761;28;20046;-75
2023/01/23 11:36:58;;;;;;;41.47;27.35;;;;;;;1.61;100.00;101859.13;10401783;28;20048;-75
2023/01/23 11:42:01;;;;;;;38.28;26.70;;;;;;;1.29;100.00;101851.97;10400925;28;20132;-74
2023/01/23 11:47:21;;;;;;;41.80;26.98;;;;;;;1.39;100.00;101852.31;10400746;28;20072;-75
2023/01/23 11:52:29;;;;;;;42.13;26.88;;;;;;;1.60;100.00;101851.31;10417408;28;20041;-76
2023/01/23 11:57:58;;;;;;;47.35;26.52;;;;;;;1.47;100.00;101844.81;10399945;28;20050;-76
2023/01/23 12:03:27;;;;;;;47.22;27.70;;;;;;;1.28;100.00;101838.09;10417942;28;20052;-75
2023/01/23 12:09:06;;;;;;;48.47;26.58;;;;;;;1.36;100.00;101839.25;10416988;28;20499;-74
2023/01/23 12:14:19;;;;;;;54.85;27.67;;;;;;;1.50;100.00;101837.13;10398688;28;20045;-75
2023/01/23 12:19:39;;;;;;;50.30;28.77;;;;;;;1.45;100.00;101834.38;10416709;28;20045;-75
2023/01/23 12:25:02;;;;;;;53.75;29.67;;;;;;;1.39;100.00;101836.78;10398546;28;20438;-75
2023/01/23 12:30:19;;;;;;;43.90;28.13;;;;;;;1.67;100.00;101835.09;10398194;28;20042;-75
2023/01/23 12:35:31;;;;;;;48.90;27.55;;;;;;;1.59;100.00;101834.84;10420735;28;20077;-76
2023/01/23 12:40:41;;;;;;;59.58;31.92;;;;;;;1.45;100.00;101842.16;10425795;28;20116;-75
2023/01/23 12:45:51;;;;;;;60.55;30.45;;;;;;;1.54;100.00;101828.63;10425747;28;20401;-75
2023/01/23 12:51:13;;;;;;;52.38;30.00;;;;;;;1.39;100.00;101839.38;10426230;28;20049;-76
2023/01/23 12:56:24;;;;;;;55.63;29.00;;;;;;;1.49;100.00;101832.78;10425915;28;20521;-74
2023/01/23 13:01:57;;;;;;;53.30;29.27;;;;;;;1.37;100.00;101848.78;10423409;28;20125;-75
2023/01/23 13:07:37;;;;;;;51.50;29.50;;;;;;;1.45;100.00;101846.47;10405155;28;20041;-76
2023/01/23 13:12:39;;;;;;;56.75;30.48;;;;;;;1.47;100.00;101848.28;10405254;28;20060;-75
2023/01/23 13:18:12;;;;;;;57.22;30.80;;;;;;;1.27;100.00;101847.59;10404648;28;20053;-75
2023/01/23 13:23:22;;;;;;;72.47;34.78;;;;;;;1.30;100.00;101849.41;10423173;28;20550;-75
2023/01/23 13:28:40;;;;;;;74.15;34.83;;;;;;;1.33;100.00;101853.78;10421524;28;20384;-75
2023/01/23 13:33:50;;;;;;;69.18;34.45;;;;;;;1.32;100.00;101849.44;10423122;28;20039;-75
2023/01/23 13:39:17;;;;;;;70.68;35.90;;;;;;;1.22;100.00;101856.03;10422550;28;20045;-75
2023/01/23 13:44:22;;;;;;;78.78;38.45;;;;;;;1.18;100.00;101859.34;10421003;28;20124;-75
2023/01/23 13:49:51;;;;;;;73.63;37.55;;;;;;;1.27;100.00;101849.28;10420908;28;20056;-75
2023/01/23 14:06:46;;;;;;;94.88;41.47;;;;;;;1.07;100.00;101850.31;9983104;29;20127;-75
2023/01/23 14:12:06;;;;;;;84.05;38.13;;;;;;;1.11;100.00;101855.66;9797685;30;20061;-75
2023/01/23 14:17:24;;;;;;;91.75;39.92;;;;;;;0.98;100.00;101849.16;9773536;30;20119;-75
2023/01/23 14:22:42;;;;;;;100.43;42.55;;;;;;;1.05;100.00;101852.84;9762692;30;20063;-75
2023/01/23 14:27:44;;;;;;;107.70;43.83;;;;;;;1.05;100.00;101864.91;9887038;29;20061;-74
2023/01/23 14:32:55;;;;;;;104.18;44.25;;;;;;;0.92;100.00;101860.97;10069972;29;20572;-75
2023/01/23 14:38:03;;;;;;;113.07;44.78;;;;;;;1.00;100.00;101865.59;10214899;28;20067;-75
2023/01/23 14:43:07;;;;;;;110.68;45.67;;;;;;;0.96;100.00;101866.31;10332843;28;20483;-75
2023/01/23 14:48:14;;;;;;;107.38;44.03;;;;;;;0.92;100.00;101863.56;10400726;28;20049;-75
2023/01/23 14:53:16;;;;;;;124.55;46.63;;;;;;;0.81;100.00;101860.59;10419400;28;20075;-75
2023/01/23 14:58:22;;;;;;;120.03;46.92;;;;;;;0.91;100.00;101854.03;10419688;28;20038;-74
2023/01/23 15:03:42;;;;;;;109.53;44.65;;;;;;;0.99;100.00;101857.81;10402878;28;20045;-75
2023/01/23 15:08:45;;;;;;;108.72;44.22;;;;;;;1.02;100.00;101857.91;10401656;28;20140;-75
2023/01/23 15:13:53;;;;;;;118.22;45.55;;;;;;;0.99;100.00;101857.81;10419334;28;20037;-75
2023/01/23 15:19:00;;;;;;;116.07;45.50;;;;;;;0.78;100.00;101851.84;10418562;28;20042;-75
2023/01/23 15:24:24;;;;;;;125.35;47.80;;;;;;;0.70;100.00;101865.34;10418992;28;20454;-75
2023/01/23 15:29:26;;;;;;;130.55;49.17;;;;;;;0.67;100.00;101859.22;10399577;28;20045;-75
2023/01/23 15:34:33;;;;;;;122.13;46.20;;;;;;;0.69;100.00;101868.78;10417418;28;20117;-75
2023/01/23 15:40:01;;;;;;;119.82;46.65;;;;;;;0.85;100.00;101865.06;10418103;28;20052;-75
2023/01/23 15:45:12;;;;;;;121.00;47.25;;;;;;;0.78;100.00;101868.25;10413297;28;20049;-76
2023/01/23 15:50:14;;;;;;;142.70;50.03;;;;;;;0.62;100.00;101878.81;10416195;28;20522;-75
2023/01/23 15:55:17;;;;;;;136.05;47.65;;;;;;;0.66;100.00;101881.59;10418990;28;20495;-75
2023/01/23 16:00:27;;;;;;;126.93;47.40;;;;;;;0.72;100.00;101889.59;10418093;28;20041;-75
2023/01/23 16:05:34;;;;;;;131.50;49.88;;;;;;;0.71;100.00;101893.03;10400295;28;20049;-75
2023/01/23 16:10:37;;;;;;;136.13;49.37;;;;;;;0.67;100.00;101898.91;10422094;28;20116;-75
2023/01/23 16:15:40;;;;;;;138.85;50.45;;;;;;;0.65;100.00;101902.25;10425059;28;20038;-75
2023/01/23 16:20:44;;;;;;;130.10;47.75;;;;;;;0.70;100.00;101906.78;10425577;28;20041;-74
2023/01/23 16:25:46;;;;;;;144.60;50.03;;;;;;;0.65;100.00;101905.72;10427265;28;20112;-75
2023/01/23 16:30:50;;;;;;;136.70;48.55;;;;;;;0.79;100.00;101914.00;10427258;28;20037;-75
2023/01/23 16:35:54;;;;;;;131.35;48.67;;;;;;;0.73;100.00;101918.97;10426969;28;20041;-76
2023/01/23 16:40:58;;;;;;;130.85;48.40;;;;;;;0.66;100.00;101920.41;10407154;28;20549;-75
2023/01/23 16:46:01;;;;;;;128.95;47.35;;;;;;;0.68;100.00;101915.31;10407852;28;20115;-76
2023/01/23 16:51:20;;;;;;;119.10;45.33;;;;;;;0.74;100.00;101920.72;10423743;28;20404;-75
2023/01/23 16:56:32;;;;;;;119.38;45.97;;;;;;;0.51;100.00;101925.00;10424669;28;20458;-75
2023/01/23 17:01:39;;;;;;;121.45;46.53;;;;;;;0.68;100.00;101928.25;10405290;28;20111;-76
2023/01/23 17:06:40;;;;;;;119.47;44.83;;;;;;;0.56;100.00;101925.19;10405773;28;20099;-75
2023/01/23 17:11:56;;;;;;;118.43;46.70;;;;;;;0.66;100.00;101924.72;10424255;28;20052;-76
2023/01/23 17:17:02;;;;;;;117.57;45.65;;;;;;;0.56;100.00;101940.72;10405242;28;20049;-75
2023/01/23 17:22:21;;;;;;;113.55;45.53;;;;;;;0.60;100.00;101934.84;10423514;28;20055;-75
2023/01/23 17:27:23;;;;;;;114.07;45.15;;;;;;;0.72;100.00;101943.97;10423343;28;20109;-75
2023/01/23 17:32:31;;;;;;;114.78;45.63;;;;;;;0.65;100.00;101949.72;10388737;28;20525;-77
2023/01/23 17:37:34;;;;;;;107.28;43.47;;;;;;;0.65;100.00;101948.84;10423527;28;20046;-76
2023/01/23 17:42:37;;;;;;;94.88;42.28;;;;;;;0.77;100.00;101948.44;10421482;28;20105;-76
2023/01/23 17:47:46;;;;;;;100.47;43.42;;;;;;;0.68;100.00;101941.19;10421266;28;20049;-77
2023/01/23 17:52:50;;;;;;;99.45;45.70;;;;;;;0.71;100.00;101939.63;10403560;28;20061;-75
2023/01/23 17:57:51;;;;;;;105.45;45.13;;;;;;;0.79;100.00;101955.41;10421853;28;20076;-76
2023/01/23 18:02:58;;;;;;;98.82;42.53;;;;;;;0.77;100.00;101957.09;10404319;28;20049;-77
2023/01/23 18:08:00;;;;;;;102.78;45.10;;;;;;;0.86;100.00;101954.84;10404092;28;20045;-76
2023/01/23 18:13:32;;;;;;;101.28;43.40;;;;;;;0.80;100.00;101949.44;10421294;28;20462;-76
2023/01/23 18:18:37;;;;;;;107.68;44.47;;;;;;;0.63;100.00;101956.56;10421660;28;20038;-75
2023/01/23 18:23:40;;;;;;;105.53;43.83;;;;;;;0.77;100.00;101959.66;10403844;28;20053;-76
2023/01/23 18:28:55;;;;;;;116.20;46.45;;;;;;;0.84;100.00;101953.91;10402140;28;20092;-76
2023/01/23 18:34:17;;;;;;;113.45;45.15;;;;;;;0.72;100.00;101951.72;10402286;28;20053;-76
2023/01/23 18:39:34;;;;;;;98.07;40.67;;;;;;;0.79;100.00;101955.41;10403744;28;20080;-75
2023/01/23 18:44:41;;;;;;;99.80;44.22;;;;;;;0.75;100.00;101950.94;10421276;28;20430;-77
2023/01/23 18:49:43;;;;;;;105.13;45.75;;;;;;;0.61;100.00;101953.00;10420262;28;20410;-77
2023/01/23 18:55:15;;;;;;;97.47;42.47;;;;;;;0.60;100.00;101953.84;10419663;28;20045;-76
2023/01/23 19:00:26;;;;;;;103.75;43.50;;;;;;;0.71;100.00;101959.44;10418941;28;20061;-77
2023/01/23 19:05:31;;;;;;;100.57;42.25;;;;;;;0.56;100.00;101951.06;10419546;28;20038;-77
2023/01/23 19:10:40;;;;;;;97.43;43.67;;;;;;;0.69;100.00;101958.50;10401569;28;20049;-77
2023/01/23 19:16:17;;;;;;;97.53;40.00;;;;;;;0.72;100.00;101959.50;10420924;28;20053;-75
2023/01/23 19:21:25;;;;;;;86.40;37.95;;;;;;;0.82;100.00;101958.13;10401788;28;20046;-76
2023/01/23 19:26:33;;;;;;;96.18;41.78;;;;;;;0.71;100.00;101956.84;10419637;28;20041;-76
2023/01/23 19:31:37;;;;;;;95.63;41.83;;;;;;;0.69;100.00;101963.66;10402596;28;20122;-76
2023/01/23 19:36:39;;;;;;;93.45;42.55;;;;;;;0.90;100.00;101956.72;10419435;28;20104;-77
2023/01/23 19:41:45;;;;;;;92.78;40.58;;;;;;;0.74;100.00;101965.59;10401789;28;20049;-75
2023/01/23 19:46:47;;;;;;;100.28;41.90;;;;;;;0.74;100.00;101972.47;10410049;28;20049;-75
2023/01/23 19:51:48;;;;;;;108.07;45.08;;;;;;;0.74;100.00;101978.53;10427295;28;20041;-74
2023/01/23 19:56:51;;;;;;;97.35;42.97;;;;;;;0.80;100.00;101979.59;10427459;28;20037;-76
2023/01/23 20:01:53;;;;;;;96.25;41.03;;;;;;;0.71;100.00;101980.16;10391568;28;20045;-77
2023/01/23 20:06:55;;;;;;;101.80;42.65;;;;;;;0.68;100.00;101974.84;10407311;28;20072;-76
2023/01/23 20:11:57;;;;;;;102.90;42.92;;;;;;;0.81;100.00;101990.03;10407852;28;20045;-75
2023/01/23 20:16:59;;;;;;;97.25;41.28;;;;;;;0.65;100.00;101987.66;10409013;28;20045;-76
2023/01/23 20:22:01;;;;;;;103.43;44.33;;;;;;;0.65;100.00;101977.31;10408000;28;20399;-75
2023/01/23 20:27:02;;;;;;;107.95;45.28;;;;;;;0.66;100.00;101979.06;10407878;28;20053;-76
2023/01/23 20:32:04;;;;;;;109.20;45.38;;;;;;;0.54;100.00;101981.19;10425516;28;20046;-76
2023/01/23 20:37:06;;;;;;;112.50;45.47;;;;;;;0.67;100.00;101976.56;10424846;28;20038;-76
2023/01/23 20:42:08;;;;;;;110.35;45.42;;;;;;;0.74;100.00;101982.84;10424246;28;20053;-76
2023/01/23 20:47:12;;;;;;;107.78;43.90;;;;;;;0.68;100.00;101974.84;10423725;28;20061;-76
2023/01/23 21:02:55;;;;;;;120.43;47.35;;;;;;;0.66;100.00;101972.19;10422819;28;20043;-77
2023/01/23 21:07:57;;;;;;;119.75;48.80;;;;;;;0.67;100.00;101975.69;10405107;28;20045;-75
2023/01/23 21:12:58;;;;;;;115.50;47.25;;;;;;;0.71;100.00;101978.44;10404056;28;20048;-75
2023/01/23 21:18:00;;;;;;;129.88;49.22;;;;;;;0.59;100.00;101977.94;10403125;28;20475;-76
2023/01/23 21:23:02;;;;;;;122.38;48.58;;;;;;;0.67;100.00;101984.31;10404008;28;20049;-76
2023/01/23 21:28:04;;;;;;;128.23;48.90;;;;;;;0.59;100.00;101987.44;10420700;28;20037;-75
2023/01/23 21:33:06;;;;;;;120.28;48.13;;;;;;;0.60;100.00;101984.00;10404601;28;20045;-75
2023/01/23 21:38:07;;;;;;;124.30;49.17;;;;;;;0.51;100.00;101981.94;10420994;28;20041;-75
2023/01/23 21:43:09;;;;;;;133.65;51.38;;;;;;;0.41;100.00;101993.63;10386769;28;20396;-76
2023/01/23 21:48:12;;;;;;;141.73;52.92;;;;;;;0.46;100.00;101980.88;10403187;28;20487;-75
2023/01/23 21:53:14;;;;;;;129.88;51.92;;;;;;;0.57;100.00;101981.28;10421505;28;20041;-76
2023/01/23 21:58:16;;;;;;;126.28;49.72;;;;;;;0.52;100.00;101986.28;10402244;28;20112;-76
2023/01/23 22:03:18;;;;;;;125.30;48.38;;;;;;;0.62;100.00;101984.94;10419965;28;20052;-76
2023/01/23 22:08:20;;;;;;;127.60;49.95;;;;;;;0.58;100.00;101980.50;10420034;28;20073;-76
2023/01/23 22:13:22;;;;;;;128.82;48.15;;;;;;;0.70;100.00;101986.13;10401321;28;20053;-75
2023/01/23 22:18:24;;;;;;;131.57;52.00;;;;;;;0.67;100.00;101986.03;10417825;28;20453;-76
2023/01/23 22:23:27;;;;;;;129.77;49.97;;;;;;;0.52;100.00;101988.88;10417503;28;20045;-76
2023/01/23 22:28:29;;;;;;;130.20;50.65;;;;;;;0.39;100.00;102000.41;10418682;28;20045;-76
2023/01/23 22:33:30;;;;;;;138.65;50.13;;;;;;;0.54;100.00;102004.47;10419029;28;20049;-75
2023/01/23 22:38:41;;;;;;;129.45;52.22;;;;;;;0.54;100.00;101997.59;10401852;28;20045;-76
2023/01/23 22:43:43;;;;;;;135.88;50.72;;;;;;;0.48;100.00;101982.69;10419214;28;20084;-75
2023/01/23 22:54:02;;;;;;;;;;;;;;;0.40;100.00;101993.53;10418452;28;20055;-70
2023/01/23 22:59:03;;;;;;;130.15;51.15;;;;;;;0.42;100.00;101985.03;10426143;28;19921;-70
2023/01/23 23:04:05;;;;;;;139.75;53.38;;;;;;;0.63;100.00;101986.72;10457509;28;20060;-70
2023/01/23 23:09:08;;;;;;;141.63;51.92;;;;;;;0.50;100.00;101982.75;10457591;28;20053;-70
2023/01/23 23:14:10;;;;;;;138.80;54.28;;;;;;;0.63;100.00;101977.25;10459605;28;20457;-70
2023/01/23 23:19:11;;;;;;;131.82;50.53;;;;;;;0.49;100.00;101974.13;10459192;28;20045;-70
2023/01/23 23:24:13;;;;;;;131.00;50.00;;;;;;;0.55;100.00;101975.19;10459379;28;20045;-70
2023/01/23 23:29:15;;;;;;;137.57;52.17;;;;;;;0.66;100.00;101968.72;10461297;28;20398;-69